sensor_id;sensor_type;location;lat;lon;timestamp;temperature;humidity
4209;DHT22;36320;48.860;2.380;2023-06-10T00:02:02;27.50;47.10
4209;DHT22;36320;48.860;2.380;2023-06-10T00:04:29;27.50;47.30
4209;DHT22;36320;48.860;2.380;2023-06-10T00:06:54;27.40;47.30
4209;DHT22;36320;48.860;2.380;2023-06-10T00:09:21;27.40;47.50
4209;DHT22;36320;48.860;2.380;2023-06-10T00:11:47;27.50;47.60
4209;DHT22;36320;48.860;2.380;2023-06-10T00:14:14;27.50;47.60
4209;DHT22;36320;48.860;2.380;2023-06-10T00:16:42;27.50;47.70
4209;DHT22;36320;48.860;2.380;2023-06-10T00:19:12;27.50;47.80
4209;DHT22;36320;48.860;2.380;2023-06-10T00:21:39;27.40;47.80
4209;DHT22;36320;48.860;2.380;2023-06-10T00:24:11;27.40;47.90
4209;DHT22;36320;48.860;2.380;2023-06-10T00:26:40;27.40;48.00
4209;DHT22;36320;48.860;2.380;2023-06-10T00:29:06;27.40;48.00
4209;DHT22;36320;48.860;2.380;2023-06-10T00:31:34;27.30;48.10
4209;DHT22;36320;48.860;2.380;2023-06-10T00:34:01;27.30;48.30
4209;DHT22;36320;48.860;2.380;2023-06-10T00:36:29;27.30;48.30
4209;DHT22;36320;48.860;2.380;2023-06-10T00:38:55;27.30;48.60
4209;DHT22;36320;48.860;2.380;2023-06-10T00:41:22;27.30;48.80
4209;DHT22;36320;48.860;2.380;2023-06-10T00:43:48;27.20;49.00
4209;DHT22;36320;48.860;2.380;2023-06-10T00:46:14;27.10;49.30
4209;DHT22;36320;48.860;2.380;2023-06-10T00:48:43;27.10;49.50
4209;DHT22;36320;48.860;2.380;2023-06-10T00:51:12;27.10;49.70
4209;DHT22;36320;48.860;2.380;2023-06-10T00:53:41;27.00;49.80
4209;DHT22;36320;48.860;2.380;2023-06-10T00:56:08;26.90;49.90
4209;DHT22;36320;48.860;2.380;2023-06-10T00:58:35;26.90;50.10
4209;DHT22;36320;48.860;2.380;2023-06-10T01:01:02;26.90;50.20
4209;DHT22;36320;48.860;2.380;2023-06-10T01:03:30;26.80;50.20
4209;DHT22;36320;48.860;2.380;2023-06-10T01:06:08;26.80;50.40
4209;DHT22;36320;48.860;2.380;2023-06-10T01:09:02;26.80;50.60
4209;DHT22;36320;48.860;2.380;2023-06-10T01:11:40;26.70;50.70
4209;DHT22;36320;48.860;2.380;2023-06-10T01:14:07;26.70;50.90
4209;DHT22;36320;48.860;2.380;2023-06-10T01:16:35;26.60;51.00
4209;DHT22;36320;48.860;2.380;2023-06-10T01:19:03;26.60;51.10
4209;DHT22;36320;48.860;2.380;2023-06-10T01:21:29;26.60;51.30
4209;DHT22;36320;48.860;2.380;2023-06-10T01:23:56;26.50;51.30
4209;DHT22;36320;48.860;2.380;2023-06-10T01:26:29;26.50;51.60
4209;DHT22;36320;48.860;2.380;2023-06-10T01:29:02;26.50;51.70
4209;DHT22;36320;48.860;2.380;2023-06-10T01:31:59;26.50;51.70
4209;DHT22;36320;48.860;2.380;2023-06-10T01:34:27;26.50;51.70
4209;DHT22;36320;48.860;2.380;2023-06-10T01:36:56;26.50;51.80
4209;DHT22;36320;48.860;2.380;2023-06-10T01:39:25;26.50;51.90
4209;DHT22;36320;48.860;2.380;2023-06-10T01:41:52;26.40;52.00
4209;DHT22;36320;48.860;2.380;2023-06-10T01:44:20;26.50;52.10
4209;DHT22;36320;48.860;2.380;2023-06-10T01:46:47;27.30;52.70
4209;DHT22;36320;48.860;2.380;2023-06-10T01:49:13;26.40;52.20
4209;DHT22;36320;48.860;2.380;2023-06-10T01:51:39;26.40;52.10
4209;DHT22;36320;48.860;2.380;2023-06-10T01:54:05;26.40;52.20
4209;DHT22;36320;48.860;2.380;2023-06-10T01:56:32;26.30;52.40
4209;DHT22;36320;48.860;2.380;2023-06-10T01:58:58;26.20;52.50
4209;DHT22;36320;48.860;2.380;2023-06-10T02:01:28;26.20;52.80
4209;DHT22;36320;48.860;2.380;2023-06-10T02:03:54;26.10;52.80
4209;DHT22;36320;48.860;2.380;2023-06-10T02:06:20;26.20;53.00
4209;DHT22;36320;48.860;2.380;2023-06-10T02:08:46;26.20;53.10
4209;DHT22;36320;48.860;2.380;2023-06-10T02:11:12;26.20;53.10
4209;DHT22;36320;48.860;2.380;2023-06-10T02:13:41;26.10;53.10
4209;DHT22;36320;48.860;2.380;2023-06-10T02:16:06;26.10;53.20
4209;DHT22;36320;48.860;2.380;2023-06-10T02:18:33;26.00;53.40
4209;DHT22;36320;48.860;2.380;2023-06-10T02:20:59;26.00;53.60
4209;DHT22;36320;48.860;2.380;2023-06-10T02:23:25;25.90;53.60
4209;DHT22;36320;48.860;2.380;2023-06-10T02:25:50;25.90;53.60
4209;DHT22;36320;48.860;2.380;2023-06-10T02:28:16;25.90;53.70
4209;DHT22;36320;48.860;2.380;2023-06-10T02:30:43;25.90;53.70
4209;DHT22;36320;48.860;2.380;2023-06-10T02:33:09;25.90;53.80
4209;DHT22;36320;48.860;2.380;2023-06-10T02:35:39;25.90;54.50
4209;DHT22;36320;48.860;2.380;2023-06-10T02:38:10;25.90;54.00
4209;DHT22;36320;48.860;2.380;2023-06-10T02:40:36;25.90;54.10
4209;DHT22;36320;48.860;2.380;2023-06-10T02:43:02;25.90;54.70
4209;DHT22;36320;48.860;2.380;2023-06-10T02:45:28;25.80;54.10
4209;DHT22;36320;48.860;2.380;2023-06-10T02:47:54;25.70;54.20
4209;DHT22;36320;48.860;2.380;2023-06-10T02:50:20;25.60;54.30
4209;DHT22;36320;48.860;2.380;2023-06-10T02:52:46;25.60;54.50
4209;DHT22;36320;48.860;2.380;2023-06-10T02:55:11;25.60;54.60
4209;DHT22;36320;48.860;2.380;2023-06-10T02:57:37;25.60;54.60
4209;DHT22;36320;48.860;2.380;2023-06-10T03:00:03;25.60;54.60
4209;DHT22;36320;48.860;2.380;2023-06-10T03:02:39;25.60;54.60
4209;DHT22;36320;48.860;2.380;2023-06-10T03:05:06;25.60;54.70
4209;DHT22;36320;48.860;2.380;2023-06-10T03:07:36;25.50;54.80
4209;DHT22;36320;48.860;2.380;2023-06-10T03:10:03;25.50;54.90
4209;DHT22;36320;48.860;2.380;2023-06-10T03:12:29;25.50;54.90
4209;DHT22;36320;48.860;2.380;2023-06-10T03:14:55;25.40;55.00
4209;DHT22;36320;48.860;2.380;2023-06-10T03:17:20;25.40;55.00
4209;DHT22;36320;48.860;2.380;2023-06-10T03:19:48;25.40;55.10
4209;DHT22;36320;48.860;2.380;2023-06-10T03:22:15;25.40;55.20
4209;DHT22;36320;48.860;2.380;2023-06-10T03:24:42;25.40;55.30
4209;DHT22;36320;48.860;2.380;2023-06-10T03:27:12;25.30;55.20
4209;DHT22;36320;48.860;2.380;2023-06-10T03:29:46;25.30;55.30
4209;DHT22;36320;48.860;2.380;2023-06-10T03:32:12;25.30;55.30
4209;DHT22;36320;48.860;2.380;2023-06-10T03:34:37;25.30;55.40
4209;DHT22;36320;48.860;2.380;2023-06-10T03:37:04;25.20;55.40
4209;DHT22;36320;48.860;2.380;2023-06-10T03:39:30;25.20;55.40
4209;DHT22;36320;48.860;2.380;2023-06-10T03:41:56;25.20;55.50
4209;DHT22;36320;48.860;2.380;2023-06-10T03:44:25;25.20;55.60
4209;DHT22;36320;48.860;2.380;2023-06-10T03:46:54;25.20;55.60
4209;DHT22;36320;48.860;2.380;2023-06-10T03:49:20;25.10;55.60
4209;DHT22;36320;48.860;2.380;2023-06-10T03:51:46;25.10;55.60
4209;DHT22;36320;48.860;2.380;2023-06-10T03:54:15;25.10;55.60
4209;DHT22;36320;48.860;2.380;2023-06-10T03:56:41;25.00;55.70
4209;DHT22;36320;48.860;2.380;2023-06-10T03:59:07;25.00;55.80
4209;DHT22;36320;48.860;2.380;2023-06-10T04:01:33;25.00;55.80
4209;DHT22;36320;48.860;2.380;2023-06-10T04:04:00;25.00;55.90
4209;DHT22;36320;48.860;2.380;2023-06-10T04:06:26;25.00;56.60
4209;DHT22;36320;48.860;2.380;2023-06-10T04:08:54;25.00;55.90
4209;DHT22;36320;48.860;2.380;2023-06-10T04:11:23;25.00;56.00
4209;DHT22;36320;48.860;2.380;2023-06-10T04:13:49;24.80;56.10
4209;DHT22;36320;48.860;2.380;2023-06-10T04:16:16;24.90;56.30
4209;DHT22;36320;48.860;2.380;2023-06-10T04:18:42;24.80;56.40
4209;DHT22;36320;48.860;2.380;2023-06-10T04:21:09;24.80;56.50
4209;DHT22;36320;48.860;2.380;2023-06-10T04:23:35;24.90;56.60
4209;DHT22;36320;48.860;2.380;2023-06-10T04:26:03;24.90;56.50
4209;DHT22;36320;48.860;2.380;2023-06-10T04:28:28;24.90;57.20
4209;DHT22;36320;48.860;2.380;2023-06-10T04:30:55;24.80;56.60
4209;DHT22;36320;48.860;2.380;2023-06-10T04:33:21;24.80;56.70
4209;DHT22;36320;48.860;2.380;2023-06-10T04:35:47;24.70;56.80
4209;DHT22;36320;48.860;2.380;2023-06-10T04:38:13;24.80;56.90
4209;DHT22;36320;48.860;2.380;2023-06-10T04:40:39;24.80;56.90
4209;DHT22;36320;48.860;2.380;2023-06-10T04:43:05;24.80;56.80
4209;DHT22;36320;48.860;2.380;2023-06-10T04:45:31;24.80;56.80
4209;DHT22;36320;48.860;2.380;2023-06-10T04:47:57;24.70;56.90
4209;DHT22;36320;48.860;2.380;2023-06-10T04:50:23;24.90;56.90
4209;DHT22;36320;48.860;2.380;2023-06-10T04:52:49;24.80;56.90
4209;DHT22;36320;48.860;2.380;2023-06-10T04:55:15;24.80;56.90
4209;DHT22;36320;48.860;2.380;2023-06-10T04:57:41;24.80;57.00
4209;DHT22;36320;48.860;2.380;2023-06-10T05:00:09;24.80;57.00
4209;DHT22;36320;48.860;2.380;2023-06-10T05:02:35;24.80;57.10
4209;DHT22;36320;48.860;2.380;2023-06-10T05:05:01;24.70;57.10
4209;DHT22;36320;48.860;2.380;2023-06-10T05:07:26;24.80;57.20
4209;DHT22;36320;48.860;2.380;2023-06-10T05:09:52;24.80;57.20
4209;DHT22;36320;48.860;2.380;2023-06-10T05:12:18;24.90;57.10
4209;DHT22;36320;48.860;2.380;2023-06-10T05:14:43;24.80;57.70
4209;DHT22;36320;48.860;2.380;2023-06-10T05:17:10;24.80;57.10
4209;DHT22;36320;48.860;2.380;2023-06-10T05:19:36;24.90;57.00
4209;DHT22;36320;48.860;2.380;2023-06-10T05:22:03;24.90;57.00
4209;DHT22;36320;48.860;2.380;2023-06-10T05:24:29;24.90;57.10
4209;DHT22;36320;48.860;2.380;2023-06-10T05:26:54;24.90;57.00
4209;DHT22;36320;48.860;2.380;2023-06-10T05:29:20;24.90;57.00
4209;DHT22;36320;48.860;2.380;2023-06-10T05:31:46;25.00;57.10
4209;DHT22;36320;48.860;2.380;2023-06-10T05:34:11;25.10;56.90
4209;DHT22;36320;48.860;2.380;2023-06-10T05:36:37;25.10;56.80
4209;DHT22;36320;48.860;2.380;2023-06-10T05:39:03;25.10;56.80
4209;DHT22;36320;48.860;2.380;2023-06-10T05:41:29;25.10;56.80
4209;DHT22;36320;48.860;2.380;2023-06-10T05:43:55;25.20;56.80
4209;DHT22;36320;48.860;2.380;2023-06-10T05:46:21;25.20;56.70
4209;DHT22;36320;48.860;2.380;2023-06-10T05:48:47;25.30;56.60
4209;DHT22;36320;48.860;2.380;2023-06-10T05:51:13;25.40;56.50
4209;DHT22;36320;48.860;2.380;2023-06-10T05:53:39;25.50;56.40
4209;DHT22;36320;48.860;2.380;2023-06-10T05:56:08;25.40;56.30
4209;DHT22;36320;48.860;2.380;2023-06-10T05:58:34;25.40;56.40
4209;DHT22;36320;48.860;2.380;2023-06-10T06:01:00;25.50;56.50
4209;DHT22;36320;48.860;2.380;2023-06-10T06:03:27;25.60;56.30
4209;DHT22;36320;48.860;2.380;2023-06-10T06:05:54;25.60;56.30
4209;DHT22;36320;48.860;2.380;2023-06-10T06:08:19;25.70;56.30
4209;DHT22;36320;48.860;2.380;2023-06-10T06:10:45;25.70;56.20
4209;DHT22;36320;48.860;2.380;2023-06-10T06:13:13;25.80;56.20
4209;DHT22;36320;48.860;2.380;2023-06-10T06:15:38;25.90;56.00
4209;DHT22;36320;48.860;2.380;2023-06-10T06:18:05;26.00;55.90
4209;DHT22;36320;48.860;2.380;2023-06-10T06:20:30;26.00;55.70
4209;DHT22;36320;48.860;2.380;2023-06-10T06:22:56;26.00;55.80
4209;DHT22;36320;48.860;2.380;2023-06-10T06:25:22;26.00;55.70
4209;DHT22;36320;48.860;2.380;2023-06-10T06:27:49;25.90;55.90
4209;DHT22;36320;48.860;2.380;2023-06-10T06:30:15;25.90;56.00
4209;DHT22;36320;48.860;2.380;2023-06-10T06:32:41;26.00;56.00
4209;DHT22;36320;48.860;2.380;2023-06-10T06:35:07;26.10;55.90
4209;DHT22;36320;48.860;2.380;2023-06-10T06:37:33;26.20;55.80
4209;DHT22;36320;48.860;2.380;2023-06-10T06:39:59;26.20;55.90
4209;DHT22;36320;48.860;2.380;2023-06-10T06:42:25;26.10;56.00
4209;DHT22;36320;48.860;2.380;2023-06-10T06:44:51;26.20;56.00
4209;DHT22;36320;48.860;2.380;2023-06-10T06:47:17;26.20;56.20
4209;DHT22;36320;48.860;2.380;2023-06-10T06:49:48;26.30;56.20
4209;DHT22;36320;48.860;2.380;2023-06-10T06:52:15;26.30;56.10
4209;DHT22;36320;48.860;2.380;2023-06-10T06:54:41;26.30;56.20
4209;DHT22;36320;48.860;2.380;2023-06-10T06:57:07;26.30;56.20
4209;DHT22;36320;48.860;2.380;2023-06-10T06:59:33;26.60;56.40
4209;DHT22;36320;48.860;2.380;2023-06-10T07:01:59;26.50;56.40
4209;DHT22;36320;48.860;2.380;2023-06-10T07:04:25;26.70;56.10
4209;DHT22;36320;48.860;2.380;2023-06-10T07:06:52;26.60;56.10
4209;DHT22;36320;48.860;2.380;2023-06-10T07:09:18;26.50;56.40
4209;DHT22;36320;48.860;2.380;2023-06-10T07:11:44;26.50;56.40
4209;DHT22;36320;48.860;2.380;2023-06-10T07:14:09;26.70;56.50
4209;DHT22;36320;48.860;2.380;2023-06-10T07:16:35;26.80;56.40
4209;DHT22;36320;48.860;2.380;2023-06-10T07:19:01;27.00;56.20
4209;DHT22;36320;48.860;2.380;2023-06-10T07:21:35;27.30;55.70
4209;DHT22;36320;48.860;2.380;2023-06-10T07:24:02;27.20;55.70
4209;DHT22;36320;48.860;2.380;2023-06-10T07:26:29;27.20;55.90
4209;DHT22;36320;48.860;2.380;2023-06-10T07:28:54;27.30;55.90
4209;DHT22;36320;48.860;2.380;2023-06-10T07:31:20;27.30;55.70
4209;DHT22;36320;48.860;2.380;2023-06-10T07:33:48;27.30;55.70
4209;DHT22;36320;48.860;2.380;2023-06-10T07:36:13;27.10;56.10
4209;DHT22;36320;48.860;2.380;2023-06-10T07:38:39;27.00;56.70
4209;DHT22;36320;48.860;2.380;2023-06-10T07:41:09;27.10;56.60
4209;DHT22;36320;48.860;2.380;2023-06-10T07:43:37;27.20;56.50
4209;DHT22;36320;48.860;2.380;2023-06-10T07:46:04;27.30;56.50
4209;DHT22;36320;48.860;2.380;2023-06-10T07:48:31;27.30;56.40
4209;DHT22;36320;48.860;2.380;2023-06-10T07:50:57;27.40;56.30
4209;DHT22;36320;48.860;2.380;2023-06-10T07:53:25;27.40;56.40
4209;DHT22;36320;48.860;2.380;2023-06-10T07:55:51;27.40;56.50
4209;DHT22;36320;48.860;2.380;2023-06-10T07:58:17;27.50;56.40
4209;DHT22;36320;48.860;2.380;2023-06-10T08:00:44;27.50;56.30
4209;DHT22;36320;48.860;2.380;2023-06-10T08:03:09;27.60;56.20
4209;DHT22;36320;48.860;2.380;2023-06-10T08:05:35;27.60;56.10
4209;DHT22;36320;48.860;2.380;2023-06-10T08:08:05;27.80;56.00
4209;DHT22;36320;48.860;2.380;2023-06-10T08:10:31;27.80;56.10
4209;DHT22;36320;48.860;2.380;2023-06-10T08:12:57;28.00;55.80
4209;DHT22;36320;48.860;2.380;2023-06-10T08:15:22;28.10;55.60
4209;DHT22;36320;48.860;2.380;2023-06-10T08:17:48;28.10;55.40
4209;DHT22;36320;48.860;2.380;2023-06-10T08:20:14;28.20;55.20
4209;DHT22;36320;48.860;2.380;2023-06-10T08:22:40;28.20;55.10
4209;DHT22;36320;48.860;2.380;2023-06-10T08:25:07;28.30;55.20
4209;DHT22;36320;48.860;2.380;2023-06-10T08:27:33;28.50;54.90
4209;DHT22;36320;48.860;2.380;2023-06-10T08:29:59;28.50;54.80
4209;DHT22;36320;48.860;2.380;2023-06-10T08:32:26;28.60;55.20
4209;DHT22;36320;48.860;2.380;2023-06-10T08:34:52;28.70;54.40
4209;DHT22;36320;48.860;2.380;2023-06-10T08:37:19;28.90;54.20
4209;DHT22;36320;48.860;2.380;2023-06-10T08:39:46;28.90;54.00
4209;DHT22;36320;48.860;2.380;2023-06-10T08:42:22;28.90;53.80
4209;DHT22;36320;48.860;2.380;2023-06-10T08:44:56;28.90;53.70
4209;DHT22;36320;48.860;2.380;2023-06-10T08:47:23;29.10;53.30
4209;DHT22;36320;48.860;2.380;2023-06-10T08:49:51;29.10;53.10
4209;DHT22;36320;48.860;2.380;2023-06-10T08:52:20;29.10;52.90
4209;DHT22;36320;48.860;2.380;2023-06-10T08:55:05;29.10;52.80
4209;DHT22;36320;48.860;2.380;2023-06-10T08:57:37;29.20;52.60
4209;DHT22;36320;48.860;2.380;2023-06-10T09:00:05;29.30;52.30
4209;DHT22;36320;48.860;2.380;2023-06-10T09:02:33;29.30;52.10
4209;DHT22;36320;48.860;2.380;2023-06-10T09:05:02;29.50;52.00
4209;DHT22;36320;48.860;2.380;2023-06-10T09:07:29;29.40;51.90
4209;DHT22;36320;48.860;2.380;2023-06-10T09:09:58;29.50;51.80
4209;DHT22;36320;48.860;2.380;2023-06-10T09:12:24;29.60;51.80
4209;DHT22;36320;48.860;2.380;2023-06-10T09:14:53;29.60;51.70
4209;DHT22;36320;48.860;2.380;2023-06-10T09:17:20;29.40;51.50
4209;DHT22;36320;48.860;2.380;2023-06-10T09:19:46;29.80;51.50
4209;DHT22;36320;48.860;2.380;2023-06-10T09:22:14;29.80;51.30
4209;DHT22;36320;48.860;2.380;2023-06-10T09:24:40;29.80;51.10
4209;DHT22;36320;48.860;2.380;2023-06-10T09:27:10;29.90;51.20
4209;DHT22;36320;48.860;2.380;2023-06-10T09:29:52;30.00;50.90
4209;DHT22;36320;48.860;2.380;2023-06-10T09:32:27;29.90;50.70
4209;DHT22;36320;48.860;2.380;2023-06-10T09:34:54;30.00;50.50
4209;DHT22;36320;48.860;2.380;2023-06-10T09:37:21;30.10;50.00
4209;DHT22;36320;48.860;2.380;2023-06-10T09:40:07;30.10;49.80
4209;DHT22;36320;48.860;2.380;2023-06-10T09:42:38;30.10;49.50
4209;DHT22;36320;48.860;2.380;2023-06-10T09:45:05;30.10;49.40
4209;DHT22;36320;48.860;2.380;2023-06-10T09:47:33;30.20;49.10
4209;DHT22;36320;48.860;2.380;2023-06-10T09:49:59;30.30;48.90
4209;DHT22;36320;48.860;2.380;2023-06-10T09:52:29;30.40;48.90
4209;DHT22;36320;48.860;2.380;2023-06-10T09:55:00;30.40;48.90
4209;DHT22;36320;48.860;2.380;2023-06-10T09:57:33;30.50;48.50
4209;DHT22;36320;48.860;2.380;2023-06-10T10:00:03;30.40;48.10
4209;DHT22;36320;48.860;2.380;2023-06-10T10:02:32;30.50;47.80
4209;DHT22;36320;48.860;2.380;2023-06-10T10:05:04;30.40;47.40
4209;DHT22;36320;48.860;2.380;2023-06-10T10:07:31;30.40;47.30
4209;DHT22;36320;48.860;2.380;2023-06-10T10:09:59;30.40;47.30
4209;DHT22;36320;48.860;2.380;2023-06-10T10:12:25;30.50;47.30
4209;DHT22;36320;48.860;2.380;2023-06-10T10:14:52;30.60;46.90
4209;DHT22;36320;48.860;2.380;2023-06-10T10:17:21;30.70;46.70
4209;DHT22;36320;48.860;2.380;2023-06-10T10:19:53;30.70;46.60
4209;DHT22;36320;48.860;2.380;2023-06-10T10:22:31;30.70;46.50
4209;DHT22;36320;48.860;2.380;2023-06-10T10:25:02;30.70;46.40
4209;DHT22;36320;48.860;2.380;2023-06-10T10:27:35;30.70;46.40
4209;DHT22;36320;48.860;2.380;2023-06-10T10:30:11;30.80;46.30
4209;DHT22;36320;48.860;2.380;2023-06-10T10:35:25;30.90;45.70
4209;DHT22;36320;48.860;2.380;2023-06-10T10:37:53;31.10;45.60
4209;DHT22;36320;48.860;2.380;2023-06-10T10:40:21;31.20;45.30
4209;DHT22;36320;48.860;2.380;2023-06-10T10:42:49;31.20;45.20
4209;DHT22;36320;48.860;2.380;2023-06-10T10:45:16;31.20;44.90
4209;DHT22;36320;48.860;2.380;2023-06-10T10:47:44;31.00;45.00
4209;DHT22;36320;48.860;2.380;2023-06-10T10:50:17;30.80;45.00
4209;DHT22;36320;48.860;2.380;2023-06-10T10:53:00;30.90;45.30
4209;DHT22;36320;48.860;2.380;2023-06-10T10:55:30;31.10;45.10
4209;DHT22;36320;48.860;2.380;2023-06-10T10:58:13;31.30;45.00
4209;DHT22;36320;48.860;2.380;2023-06-10T11:00:44;31.40;44.80
4209;DHT22;36320;48.860;2.380;2023-06-10T11:03:22;31.50;44.40
4209;DHT22;36320;48.860;2.380;2023-06-10T11:05:53;31.60;44.00
4209;DHT22;36320;48.860;2.380;2023-06-10T11:14:06;31.20;43.90
4209;DHT22;36320;48.860;2.380;2023-06-10T11:16:41;31.60;44.50
4209;DHT22;36320;48.860;2.380;2023-06-10T11:19:34;31.50;44.50
4209;DHT22;36320;48.860;2.380;2023-06-10T11:22:03;31.60;44.40
4209;DHT22;36320;48.860;2.380;2023-06-10T11:24:33;32.00;43.40
4209;DHT22;36320;48.860;2.380;2023-06-10T11:27:18;32.10;42.70
4209;DHT22;36320;48.860;2.380;2023-06-10T11:30:20;32.10;42.50
4209;DHT22;36320;48.860;2.380;2023-06-10T11:33:02;32.10;42.50
4209;DHT22;36320;48.860;2.380;2023-06-10T11:35:33;32.00;42.70
4209;DHT22;36320;48.860;2.380;2023-06-10T11:38:02;32.00;42.80
4209;DHT22;36320;48.860;2.380;2023-06-10T11:40:30;32.20;42.90
4209;DHT22;36320;48.860;2.380;2023-06-10T11:42:59;32.50;42.50
4209;DHT22;36320;48.860;2.380;2023-06-10T11:45:28;32.60;42.10
4209;DHT22;36320;48.860;2.380;2023-06-10T11:47:58;32.50;42.10
4209;DHT22;36320;48.860;2.380;2023-06-10T11:50:31;32.30;42.10
4209;DHT22;36320;48.860;2.380;2023-06-10T11:53:01;32.40;42.00
4209;DHT22;36320;48.860;2.380;2023-06-10T11:55:47;32.40;41.90
4209;DHT22;36320;48.860;2.380;2023-06-10T11:58:17;32.30;41.50
4209;DHT22;36320;48.860;2.380;2023-06-10T12:03:13;32.00;41.50
4209;DHT22;36320;48.860;2.380;2023-06-10T12:05:40;32.20;41.60
4209;DHT22;36320;48.860;2.380;2023-06-10T12:08:11;32.40;41.60
4209;DHT22;36320;48.860;2.380;2023-06-10T12:10:44;32.70;41.40
4209;DHT22;36320;48.860;2.380;2023-06-10T12:13:13;32.80;41.00
4209;DHT22;36320;48.860;2.380;2023-06-10T12:15:50;32.60;41.00
4209;DHT22;36320;48.860;2.380;2023-06-10T12:18:26;32.50;41.20
4209;DHT22;36320;48.860;2.380;2023-06-10T12:20:52;32.70;41.20
4209;DHT22;36320;48.860;2.380;2023-06-10T12:23:21;32.90;40.80
4209;DHT22;36320;48.860;2.380;2023-06-10T12:25:55;33.00;40.60
4209;DHT22;36320;48.860;2.380;2023-06-10T12:28:26;33.10;40.60
4209;DHT22;36320;48.860;2.380;2023-06-10T12:31:10;32.90;40.70
4209;DHT22;36320;48.860;2.380;2023-06-10T12:33:37;33.10;41.10
4209;DHT22;36320;48.860;2.380;2023-06-10T12:36:04;33.20;40.90
4209;DHT22;36320;48.860;2.380;2023-06-10T12:38:33;33.20;41.10
4209;DHT22;36320;48.860;2.380;2023-06-10T12:41:05;33.20;41.10
4209;DHT22;36320;48.860;2.380;2023-06-10T12:43:35;33.20;40.90
4209;DHT22;36320;48.860;2.380;2023-06-10T12:46:10;33.20;40.80
4209;DHT22;36320;48.860;2.380;2023-06-10T12:48:49;32.90;40.40
4209;DHT22;36320;48.860;2.380;2023-06-10T12:51:34;32.90;40.60
4209;DHT22;36320;48.860;2.380;2023-06-10T12:54:03;32.90;40.40
4209;DHT22;36320;48.860;2.380;2023-06-10T12:56:28;32.90;40.20
4209;DHT22;36320;48.860;2.380;2023-06-10T12:58:55;33.00;40.20
4209;DHT22;36320;48.860;2.380;2023-06-10T13:01:21;33.10;40.30
4209;DHT22;36320;48.860;2.380;2023-06-10T13:03:49;33.20;40.00
4209;DHT22;36320;48.860;2.380;2023-06-10T13:06:17;33.40;39.80
4209;DHT22;36320;48.860;2.380;2023-06-10T13:08:44;33.30;39.70
4209;DHT22;36320;48.860;2.380;2023-06-10T13:11:11;33.10;39.80
4209;DHT22;36320;48.860;2.380;2023-06-10T13:13:37;33.10;40.00
4209;DHT22;36320;48.860;2.380;2023-06-10T13:16:03;33.00;40.10
4209;DHT22;36320;48.860;2.380;2023-06-10T13:18:29;32.90;40.20
4209;DHT22;36320;48.860;2.380;2023-06-10T13:20:55;33.10;40.20
4209;DHT22;36320;48.860;2.380;2023-06-10T13:23:23;33.40;39.70
4209;DHT22;36320;48.860;2.380;2023-06-10T13:25:49;33.50;39.30
4209;DHT22;36320;48.860;2.380;2023-06-10T13:28:14;33.60;39.30
4209;DHT22;36320;48.860;2.380;2023-06-10T13:30:40;33.80;39.80
4209;DHT22;36320;48.860;2.380;2023-06-10T13:33:06;33.80;39.10
4209;DHT22;36320;48.860;2.380;2023-06-10T13:35:32;33.70;39.20
4209;DHT22;36320;48.860;2.380;2023-06-10T13:37:58;33.60;39.50
4209;DHT22;36320;48.860;2.380;2023-06-10T13:40:24;33.10;39.80
4209;DHT22;36320;48.860;2.380;2023-06-10T13:42:53;33.10;40.00
4209;DHT22;36320;48.860;2.380;2023-06-10T13:45:24;33.30;39.90
4209;DHT22;36320;48.860;2.380;2023-06-10T13:47:50;33.40;39.90
4209;DHT22;36320;48.860;2.380;2023-06-10T13:50:17;33.40;39.60
4209;DHT22;36320;48.860;2.380;2023-06-10T13:52:44;33.50;39.70
4209;DHT22;36320;48.860;2.380;2023-06-10T13:55:11;33.70;39.40
4209;DHT22;36320;48.860;2.380;2023-06-10T13:57:37;33.60;39.30
4209;DHT22;36320;48.860;2.380;2023-06-10T14:00:03;33.40;39.40
4209;DHT22;36320;48.860;2.380;2023-06-10T14:02:30;33.40;39.50
4209;DHT22;36320;48.860;2.380;2023-06-10T14:04:55;33.10;39.60
4209;DHT22;36320;48.860;2.380;2023-06-10T14:07:23;33.10;39.90
4209;DHT22;36320;48.860;2.380;2023-06-10T14:09:51;33.30;39.70
4209;DHT22;36320;48.860;2.380;2023-06-10T14:12:18;33.40;39.50
4209;DHT22;36320;48.860;2.380;2023-06-10T14:14:44;33.40;39.50
4209;DHT22;36320;48.860;2.380;2023-06-10T14:17:10;33.40;39.50
4209;DHT22;36320;48.860;2.380;2023-06-10T14:19:35;33.40;39.40
4209;DHT22;36320;48.860;2.380;2023-06-10T14:22:01;33.20;39.60
4209;DHT22;36320;48.860;2.380;2023-06-10T14:24:27;32.90;39.90
4209;DHT22;36320;48.860;2.380;2023-06-10T14:26:53;33.00;40.30
4209;DHT22;36320;48.860;2.380;2023-06-10T14:29:22;33.10;40.10
4209;DHT22;36320;48.860;2.380;2023-06-10T14:31:48;33.20;40.00
4209;DHT22;36320;48.860;2.380;2023-06-10T14:34:14;33.20;39.80
4209;DHT22;36320;48.860;2.380;2023-06-10T14:36:41;33.50;39.70
4209;DHT22;36320;48.860;2.380;2023-06-10T14:39:09;33.70;39.30
4209;DHT22;36320;48.860;2.380;2023-06-10T14:41:35;33.90;38.80
4209;DHT22;36320;48.860;2.380;2023-06-10T14:44:01;34.00;38.60
4209;DHT22;36320;48.860;2.380;2023-06-10T14:46:29;34.10;38.50
4209;DHT22;36320;48.860;2.380;2023-06-10T14:48:56;34.00;38.50
4209;DHT22;36320;48.860;2.380;2023-06-10T14:51:27;34.00;38.30
4209;DHT22;36320;48.860;2.380;2023-06-10T14:53:53;34.00;38.40
4209;DHT22;36320;48.860;2.380;2023-06-10T14:56:19;34.00;38.00
4209;DHT22;36320;48.860;2.380;2023-06-10T14:58:45;34.10;38.60
4209;DHT22;36320;48.860;2.380;2023-06-10T15:01:11;34.20;38.70
4209;DHT22;36320;48.860;2.380;2023-06-10T15:03:38;34.50;38.70
4209;DHT22;36320;48.860;2.380;2023-06-10T15:06:05;34.60;38.30
4209;DHT22;36320;48.860;2.380;2023-06-10T15:08:31;34.60;38.20
4209;DHT22;36320;48.860;2.380;2023-06-10T15:11:00;34.60;38.10
4209;DHT22;36320;48.860;2.380;2023-06-10T15:13:28;34.50;38.10
4209;DHT22;36320;48.860;2.380;2023-06-10T15:15:54;34.20;38.40
4209;DHT22;36320;48.860;2.380;2023-06-10T15:18:22;33.90;38.90
4209;DHT22;36320;48.860;2.380;2023-06-10T15:20:54;34.00;38.90
4209;DHT22;36320;48.860;2.380;2023-06-10T15:23:20;33.80;39.00
4209;DHT22;36320;48.860;2.380;2023-06-10T15:25:48;33.90;39.20
4209;DHT22;36320;48.860;2.380;2023-06-10T15:28:17;33.70;39.10
4209;DHT22;36320;48.860;2.380;2023-06-10T15:30:46;34.70;39.40
4209;DHT22;36320;48.860;2.380;2023-06-10T15:33:12;35.10;37.70
4209;DHT22;36320;48.860;2.380;2023-06-10T15:35:40;36.80;36.30
4209;DHT22;36320;48.860;2.380;2023-06-10T15:38:06;36.30;36.10
4209;DHT22;36320;48.860;2.380;2023-06-10T15:40:32;35.60;36.60
4209;DHT22;36320;48.860;2.380;2023-06-10T15:42:57;34.90;37.20
4209;DHT22;36320;48.860;2.380;2023-06-10T15:45:44;35.60;36.80
4209;DHT22;36320;48.860;2.380;2023-06-10T15:48:09;35.40;36.50
4209;DHT22;36320;48.860;2.380;2023-06-10T15:50:35;35.10;36.90
4209;DHT22;36320;48.860;2.380;2023-06-10T15:53:01;35.00;37.10
4209;DHT22;36320;48.860;2.380;2023-06-10T15:55:27;35.10;37.10
4209;DHT22;36320;48.860;2.380;2023-06-10T15:58:03;34.90;37.20
4209;DHT22;36320;48.860;2.380;2023-06-10T16:00:32;36.50;36.20
4209;DHT22;36320;48.860;2.380;2023-06-10T16:02:59;40.70;32.50